Time;durP1;ratioP1;P1;durP2;ratioP2;P2;SDS_P1;SDS_P2;PMS_P1;PMS_P2;Temp;Humidity;BMP_temperature;BMP_pressure;BME280_temperature;BME280_humidity;BME280_pressure;Samples;Min_cycle;Max_cycle;Signal;HPM_P1;HPM_P2
2022/01/21 00:00:26;;;;;;;8.80;3.70;;;;;;;-2.63;77.90;98215.10;106099;1277;138076;-83
2022/01/21 00:03:12;;;;;;;10.20;3.80;;;;;;;-2.64;77.81;98214.86;106329;1277;22998;-82
2022/01/21 00:05:38;;;;;;;8.70;3.80;;;;;;;-2.63;77.84;98215.53;106391;1277;25352;-84
2022/01/21 00:08:07;;;;;;;12.40;4.30;;;;;;;-2.64;77.71;98212.36;106042;1277;137886;-82
2022/01/21 00:10:48;;;;;;;14.80;4.10;;;;;;;-2.64;77.66;98213.37;106013;1277;22553;-81
2022/01/21 00:13:20;;;;;;;12.50;4.20;;;;;;;-2.66;77.60;98213.09;106013;1277;138026;-82
2022/01/21 00:15:47;;;;;;;9.70;3.20;;;;;;;-2.68;77.68;98216.59;106324;1277;31434;-80
2022/01/21 00:18:13;;;;;;;7.20;3.10;;;;;;;-2.71;77.51;98222.73;106192;1279;25387;-81
2022/01/21 00:31:55;;;;;;;7.30;3.20;;;;;;;-2.73;77.86;98219.96;105881;1280;137537;-81
2022/01/21 00:34:21;;;;;;;10.40;3.70;;;;;;;-2.73;77.84;98220.20;106242;1274;23507;-81
2022/01/21 00:36:51;;;;;;;;;;;;;;;-2.73;77.81;98223.56;105987;1280;138879;-82
2022/01/21 00:39:21;;;;;;;7.00;2.70;;;;;;;-2.74;77.70;98220.92;106087;1278;24292;-82
2022/01/21 00:41:59;;;;;;;8.50;3.40;;;;;;;-2.76;78.07;98221.29;106151;1278;22575;-81
2022/01/21 00:44:26;;;;;;;5.50;2.60;;;;;;;-2.77;77.96;98222.55;106092;1281;138308;-82
2022/01/21 00:46:53;;;;;;;8.20;2.80;;;;;;;-2.78;77.89;98228.86;106193;1277;24298;-82
2022/01/21 00:49:19;;;;;;;5.80;2.60;;;;;;;-2.77;77.83;98229.78;106122;1278;138443;-82
2022/01/21 00:51:45;;;;;;;6.90;3.10;;;;;;;-2.75;77.53;98233.84;106287;1277;22684;-82
2022/01/21 00:54:13;;;;;;;8.80;2.30;;;;;;;-2.75;77.70;98239.34;106064;1277;25337;-82
2022/01/21 00:56:39;;;;;;;4.90;2.20;;;;;;;-2.76;77.33;98244.27;106086;1281;137795;-81
2022/01/21 00:59:05;;;;;;;9.60;2.60;;;;;;;-2.78;77.48;98243.10;106155;1278;22733;-81
2022/01/21 01:01:32;;;;;;;9.30;3.00;;;;;;;-2.81;77.44;98240.87;106246;1277;138255;-82
2022/01/21 01:04:00;;;;;;;10.40;3.10;;;;;;;-2.83;77.66;98239.17;106288;1277;22588;-83
2022/01/21 01:06:27;;;;;;;5.80;2.80;;;;;;;-2.84;77.35;98246.33;106006;1277;24134;-82
2022/01/21 01:08:54;;;;;;;9.60;2.70;;;;;;;-2.83;77.61;98253.23;106045;1278;138460;-82
2022/01/21 01:22:53;;;;;;;8.70;3.30;;;;;;;-2.80;78.13;98259.98;106207;1277;25248;-82
2022/01/21 01:28:06;;;;;;;6.80;2.00;;;;;;;-2.81;78.63;98252.02;106191;1277;22837;-82
2022/01/21 01:30:47;;;;;;;7.80;3.20;;;;;;;-2.80;78.41;98254.29;106111;1277;138207;-82
2022/01/21 01:33:22;;;;;;;7.30;2.80;;;;;;;-2.81;78.50;98251.73;106344;1277;22574;-82
2022/01/21 01:35:51;;;;;;;12.00;3.60;;;;;;;-2.83;78.26;98254.80;106172;1278;22720;-83
2022/01/21 01:40:58;;;;;;;4.60;2.00;;;;;;;-2.83;78.83;98270.77;106111;1278;22629;-82
2022/01/21 01:51:28;;;;;;;7.60;1.90;;;;;;;-2.85;80.09;98283.05;106191;1277;22552;-83
2022/01/21 01:54:05;;;;;;;8.20;2.50;;;;;;;-2.86;79.55;98284.80;106443;1277;22586;-83
2022/01/21 01:56:36;;;;;;;6.20;2.10;;;;;;;-2.89;79.60;98286.16;105920;1281;137517;-82
2022/01/21 01:59:03;;;;;;;4.10;1.90;;;;;;;-2.92;79.34;98288.41;106186;1278;24437;-82
2022/01/21 02:01:29;;;;;;;3.40;1.50;;;;;;;-2.97;77.65;98288.59;106165;1280;138855;-83
2022/01/21 02:03:56;;;;;;;3.00;1.50;;;;;;;-2.98;76.47;98290.16;106251;1277;25412;-84
2022/01/21 02:06:22;;;;;;;4.30;1.60;;;;;;;-3.00;76.01;98298.19;106205;1277;22602;-84
2022/01/21 02:08:49;;;;;;;3.70;1.20;;;;;;;-3.02;76.20;98307.64;106061;1280;137588;-83
2022/01/21 02:11:18;;;;;;;4.60;2.10;;;;;;;-3.05;77.07;98312.33;106065;1279;25590;-83
2022/01/21 02:13:48;;;;;;;2.90;1.10;;;;;;;-3.10;77.82;98318.19;106086;1280;138221;-83
2022/01/21 02:21:37;;;;;;;3.80;1.50;;;;;;;-3.24;75.54;98334.27;106090;1281;22569;-82
2022/01/21 02:24:31;;;;;;;4.40;1.20;;;;;;;-3.27;75.44;98327.73;106115;1277;22550;-82
2022/01/21 02:27:00;;;;;;;1.30;0.90;;;;;;;-3.29;74.97;98318.23;106352;1277;138121;-82
2022/01/21 02:29:32;;;;;;;2.30;0.90;;;;;;;-3.29;75.23;98322.30;106384;1278;25383;-83
2022/01/21 02:32:00;;;;;;;3.30;1.20;;;;;;;-3.29;73.54;98315.58;106231;1277;138542;-81
2022/01/21 02:34:27;;;;;;;2.50;1.00;;;;;;;-3.31;73.77;98314.83;106441;1277;25316;-82
2022/01/21 02:36:54;;;;;;;1.40;0.90;;;;;;;-3.32;72.78;98310.39;105887;1280;137724;-84
2022/01/21 02:39:20;;;;;;;4.10;1.10;;;;;;;-3.34;72.43;98315.52;105945;1278;25499;-82
2022/01/21 02:41:47;;;;;;;3.10;1.20;;;;;;;-3.36;72.71;98311.01;106036;1277;22612;-82
2022/01/21 02:44:16;;;;;;;2.70;1.00;;;;;;;-3.40;72.83;98315.65;105981;1277;137718;-82
2022/01/21 02:46:46;;;;;;;2.10;1.20;;;;;;;-3.44;73.56;98324.72;106373;1277;22610;-82
2022/01/21 02:49:13;;;;;;;2.90;1.30;;;;;;;-3.43;73.71;98331.25;106196;1278;138620;-80
2022/01/21 02:51:40;;;;;;;2.40;0.90;;;;;;;-3.44;74.10;98337.52;106159;1278;23931;-81
2022/01/21 02:54:06;;;;;;;3.70;1.50;;;;;;;-3.47;74.91;98337.79;106103;1279;25408;-82
2022/01/21 02:56:36;;;;;;;4.60;1.50;;;;;;;-3.51;75.17;98341.10;106099;1278;138154;-83
2022/01/21 02:59:04;;;;;;;4.00;1.30;;;;;;;-3.56;75.60;98351.05;106397;1278;22588;-82
2022/01/21 03:01:33;;;;;;;5.50;2.60;;;;;;;-3.61;75.65;98349.88;106055;1277;138846;-82
2022/01/21 03:04:00;;;;;;;5.30;1.50;;;;;;;-3.63;75.02;98347.58;106035;1280;24300;-84
2022/01/21 03:06:27;;;;;;;3.50;1.50;;;;;;;-3.65;75.37;98348.36;106245;1278;22575;-81
2022/01/21 03:09:08;;;;;;;3.20;1.80;;;;;;;-3.69;74.85;98353.73;106111;1279;137386;-82
2022/01/21 03:11:35;;;;;;;6.90;2.00;;;;;;;-3.74;75.29;98351.73;106020;1281;24269;-81
2022/01/21 03:14:02;;;;;;;7.50;1.90;;;;;;;-3.78;75.29;98351.88;106086;1280;138717;-82
2022/01/21 03:16:28;;;;;;;4.00;1.50;;;;;;;-3.82;75.24;98352.77;106233;1279;22607;-82
2022/01/21 03:18:56;;;;;;;4.10;1.30;;;;;;;-3.84;74.13;98355.13;106140;1277;139754;-81
2022/01/21 03:21:22;;;;;;;4.60;1.40;;;;;;;-3.88;74.17;98357.56;106236;1277;22600;-82
2022/01/21 03:23:51;;;;;;;3.00;1.60;;;;;;;-3.91;73.88;98359.69;106244;1278;22547;-82
2022/01/21 03:26:21;;;;;;;3.70;1.60;;;;;;;-3.95;74.02;98359.44;105891;1280;137654;-82
2022/01/21 03:28:51;;;;;;;4.30;1.60;;;;;;;-4.00;74.02;98363.06;105846;1281;22583;-82
2022/01/21 03:31:19;;;;;;;2.40;1.50;;;;;;;-4.04;74.50;98371.41;105833;1280;139821;-81
2022/01/21 03:33:46;;;;;;;7.10;2.50;;;;;;;-4.07;74.53;98374.77;106043;1277;22686;-81
2022/01/21 03:36:13;;;;;;;6.00;2.00;;;;;;;-4.09;74.81;98374.12;105732;1280;24327;-81
2022/01/21 03:38:41;;;;;;;4.60;1.30;;;;;;;-4.10;74.67;98375.21;105707;1280;138423;-82
2022/01/21 03:41:07;;;;;;;4.50;1.30;;;;;;;-4.10;74.33;98379.14;105765;1277;22581;-80
2022/01/21 03:43:34;;;;;;;2.90;1.20;;;;;;;-4.10;74.10;98378.30;105580;1277;138119;-82
2022/01/21 03:46:05;;;;;;;3.60;1.60;;;;;;;-4.13;74.13;98371.64;106095;1277;22602;-82
2022/01/21 03:48:31;;;;;;;4.00;1.30;;;;;;;-4.15;74.34;98374.67;105902;1277;25385;-81
2022/01/21 03:50:58;;;;;;;5.10;1.60;;;;;;;-4.18;74.38;98372.32;105786;1278;137803;-81
2022/01/21 03:53:24;;;;;;;5.30;1.40;;;;;;;-4.21;74.15;98380.41;105884;1278;23191;-81
2022/01/21 03:55:51;;;;;;;4.90;1.60;;;;;;;-4.22;74.02;98380.87;105839;1277;138312;-81
2022/01/21 03:58:17;;;;;;;5.60;1.40;;;;;;;-4.23;74.10;98386.11;105940;1278;25236;-80
2022/01/21 04:00:49;;;;;;;2.60;1.10;;;;;;;-4.25;73.92;98383.98;105995;1277;137751;-81
2022/01/21 04:03:16;;;;;;;2.40;1.20;;;;;;;-4.27;73.76;98385.33;105909;1277;25323;-80
2022/01/21 04:05:43;;;;;;;2.60;1.30;;;;;;;-4.30;74.22;98381.18;105963;1278;22551;-83
2022/01/21 04:08:11;;;;;;;4.30;1.60;;;;;;;-4.34;74.16;98383.66;105742;1277;137871;-82
2022/01/21 04:10:41;;;;;;;3.40;1.30;;;;;;;-4.37;73.72;98383.62;105967;1277;29168;-80
2022/01/21 04:13:15;;;;;;;1.80;1.20;;;;;;;-4.39;73.83;98396.00;105839;1278;138703;-80
2022/01/21 04:15:47;;;;;;;6.20;1.50;;;;;;;-4.39;73.96;98402.98;105940;1277;25255;-80
2022/01/21 04:18:13;;;;;;;1.70;0.90;;;;;;;-4.40;74.13;98409.41;105769;1278;22575;-81
2022/01/21 04:20:41;;;;;;;3.30;1.50;;;;;;;-4.42;74.56;98407.77;105836;1277;138047;-80
2022/01/21 04:23:10;;;;;;;3.20;1.40;;;;;;;-4.43;74.71;98410.56;105906;1280;26506;-81
2022/01/21 04:25:37;;;;;;;3.30;1.70;;;;;;;-4.45;75.12;98413.27;105920;1278;138181;-81
2022/01/21 04:28:04;;;;;;;3.20;1.50;;;;;;;-4.48;75.28;98411.30;106033;1277;22542;-80
2022/01/21 04:30:31;;;;;;;5.30;1.80;;;;;;;-4.53;75.83;98413.19;105944;1277;22578;-81
2022/01/21 04:32:57;;;;;;;6.20;2.20;;;;;;;-4.57;75.92;98416.73;105747;1278;138691;-80
2022/01/21 04:35:27;;;;;;;5.60;2.40;;;;;;;-4.59;75.99;98418.11;105755;1277;25366;-82
2022/01/21 04:37:57;;;;;;;4.50;1.60;;;;;;;-4.60;76.29;98420.73;105605;1277;137623;-82
2022/01/21 04:40:28;;;;;;;4.20;1.90;;;;;;;-4.61;76.79;98425.96;106064;1277;22589;-81
2022/01/21 04:48:35;;;;;;;6.10;3.00;;;;;;;-4.70;77.68;98431.34;106057;1277;25320;-81
2022/01/21 04:53:48;;;;;;;8.30;3.70;;;;;;;-4.77;78.03;98433.39;106063;1277;24954;-81
2022/01/21 04:56:21;;;;;;;10.20;3.20;;;;;;;-4.78;78.28;98429.52;105871;1277;138459;-81
2022/01/21 04:58:48;;;;;;;8.30;3.40;;;;;;;-4.80;78.46;98429.05;105797;1278;25366;-79
2022/01/21 05:01:14;;;;;;;7.10;3.50;;;;;;;-4.81;78.39;98437.42;106032;1277;137736;-81
2022/01/21 05:03:42;;;;;;;13.00;3.30;;;;;;;-4.82;78.48;98441.16;105865;1277;26506;-81
2022/01/21 05:06:09;;;;;;;4.40;2.30;;;;;;;-4.84;78.48;98440.61;105940;1277;24468;-80
2022/01/21 05:11:13;;;;;;;9.10;3.10;;;;;;;-4.89;78.56;98441.15;105816;1277;22718;-80
2022/01/21 05:13:44;;;;;;;10.90;3.50;;;;;;;-4.89;78.66;98440.52;105970;1277;138627;-81
2022/01/21 05:16:30;;;;;;;4.20;1.90;;;;;;;-4.87;78.43;98441.77;105908;1277;22561;-82
2022/01/21 05:19:04;;;;;;;7.00;1.90;;;;;;;-4.85;77.92;98430.93;105927;1277;137940;-81
2022/01/21 05:22:00;;;;;;;7.10;1.80;;;;;;;-4.83;78.08;98432.35;105453;1280;22833;-83
2022/01/21 05:24:33;;;;;;;3.30;1.70;;;;;;;-4.83;77.70;98429.17;106285;1277;22600;-83
2022/01/21 05:27:01;;;;;;;4.30;2.20;;;;;;;-4.83;77.87;98435.20;106046;1277;137774;-82
2022/01/21 05:29:43;;;;;;;9.00;2.10;;;;;;;-4.83;77.60;98437.15;105977;1277;22547;-82
2022/01/21 05:32:26;;;;;;;7.00;2.30;;;;;;;-4.83;77.62;98429.16;105984;1277;138079;-82
2022/01/21 05:35:03;;;;;;;8.20;2.20;;;;;;;-4.81;77.44;98427.36;105972;1277;22645;-82
2022/01/21 05:37:48;;;;;;;5.90;1.90;;;;;;;-4.78;77.52;98435.90;105885;1277;137977;-82
2022/01/21 05:40:32;;;;;;;11.20;3.30;;;;;;;-4.74;77.71;98438.40;106039;1277;22575;-82
2022/01/21 05:43:03;;;;;;;6.40;2.60;;;;;;;-4.71;77.61;98435.12;105958;1277;139511;-82
2022/01/21 05:48:56;;;;;;;5.90;2.20;;;;;;;-4.65;77.15;98434.02;105951;1277;138387;-83
2022/01/21 05:51:43;;;;;;;7.90;2.10;;;;;;;-4.61;77.20;98445.65;106199;1277;25280;-85
2022/01/21 05:54:27;;;;;;;4.40;1.90;;;;;;;-4.54;77.16;98450.35;106354;1277;24271;-84
2022/01/21 05:57:17;;;;;;;10.40;3.50;;;;;;;-4.48;76.90;98460.32;106098;1277;137282;-82
2022/01/21 05:59:49;;;;;;;4.00;2.40;;;;;;;-4.44;76.85;98464.34;106405;1277;22551;-83
2022/01/21 06:02:16;;;;;;;9.70;3.20;;;;;;;-4.41;76.99;98467.46;105976;1280;137765;-84
2022/01/21 06:04:44;;;;;;;5.90;2.90;;;;;;;-4.38;76.67;98466.48;106156;1280;24323;-83
2022/01/21 06:07:11;;;;;;;6.30;3.10;;;;;;;-4.35;76.85;98468.52;106033;1278;137866;-83
2022/01/21 06:09:37;;;;;;;5.60;2.90;;;;;;;-4.34;76.88;98465.77;106176;1279;23966;-83
2022/01/21 06:12:05;;;;;;;7.20;2.80;;;;;;;-4.31;76.53;98465.24;106357;1277;22609;-84
2022/01/21 06:14:31;;;;;;;5.70;2.70;;;;;;;-4.28;77.23;98459.06;106176;1277;137972;-81
2022/01/21 06:16:58;;;;;;;6.90;3.10;;;;;;;-4.24;77.35;98457.09;106329;1276;24316;-84
2022/01/21 06:19:24;;;;;;;5.70;3.00;;;;;;;-4.21;77.20;98462.52;106050;1277;137701;-82
2022/01/21 06:21:50;;;;;;;6.30;2.20;;;;;;;-4.20;77.49;98461.28;106281;1277;25366;-82
2022/01/21 06:24:16;;;;;;;10.70;3.30;;;;;;;-4.18;77.70;98462.05;106214;1278;24288;-81
2022/01/21 06:26:44;;;;;;;8.50;2.90;;;;;;;-4.18;78.32;98464.65;106497;1277;138175;-81
2022/01/21 06:29:10;;;;;;;6.00;3.00;;;;;;;-4.18;78.13;98466.45;106274;1277;22881;-82
2022/01/21 06:31:36;;;;;;;8.90;4.40;;;;;;;-4.16;78.00;98472.28;106186;1277;138115;-82
2022/01/21 06:34:03;;;;;;;6.50;3.10;;;;;;;-4.12;78.25;98468.73;106145;1278;22599;-83
2022/01/21 06:36:29;;;;;;;4.80;2.30;;;;;;;-4.09;78.79;98475.53;106064;1279;22688;-81
2022/01/21 06:38:55;;;;;;;8.20;3.50;;;;;;;-4.07;78.69;98481.53;105911;1278;137868;-81
2022/01/21 06:41:22;;;;;;;5.20;3.20;;;;;;;-4.07;78.98;98484.11;105837;1279;22596;-82
2022/01/21 06:43:50;;;;;;;8.60;4.00;;;;;;;-4.06;78.93;98479.45;106226;1280;137784;-82
2022/01/21 06:46:16;;;;;;;11.50;4.00;;;;;;;-4.04;79.22;98477.36;106207;1279;22586;-83
2022/01/21 06:48:42;;;;;;;8.50;3.70;;;;;;;-4.01;79.20;98476.52;106224;1278;24239;-82
2022/01/21 06:51:08;;;;;;;11.30;4.20;;;;;;;-3.97;79.65;98480.38;106136;1277;137841;-81
2022/01/21 06:53:35;;;;;;;8.80;2.80;;;;;;;-3.94;79.75;98484.46;106245;1277;23078;-81
2022/01/21 06:56:01;;;;;;;7.50;2.80;;;;;;;-3.93;80.29;98484.91;106167;1277;138027;-81
2022/01/21 06:58:27;;;;;;;7.10;3.30;;;;;;;-3.92;80.03;98487.50;106123;1278;25287;-81
2022/01/21 07:00:53;;;;;;;6.20;2.70;;;;;;;-3.92;80.60;98489.10;106077;1277;138238;-81
2022/01/21 07:03:20;;;;;;;12.00;4.90;;;;;;;-3.91;80.73;98489.30;106075;1278;25261;-81
2022/01/21 07:05:46;;;;;;;9.50;3.60;;;;;;;-3.88;80.78;98494.23;106008;1280;22557;-81
2022/01/21 07:08:15;;;;;;;8.60;3.40;;;;;;;-3.86;81.37;98495.34;106012;1279;138093;-81
2022/01/21 07:10:42;;;;;;;10.60;3.30;;;;;;;-3.84;81.36;98501.75;105818;1279;22821;-81
2022/01/21 07:13:10;;;;;;;7.10;4.00;;;;;;;-3.82;81.13;98499.06;106138;1277;137932;-82
2022/01/21 07:15:37;;;;;;;16.80;5.30;;;;;;;-3.80;81.47;98503.21;106099;1277;24312;-82
2022/01/21 07:18:04;;;;;;;10.50;4.30;;;;;;;-3.78;81.47;98500.66;105918;1277;22557;-82
2022/01/21 07:20:30;;;;;;;9.10;3.20;;;;;;;-3.75;81.43;98502.52;106083;1277;138503;-81
2022/01/21 07:22:56;;;;;;;10.30;4.10;;;;;;;-3.74;81.81;98507.83;106198;1277;22572;-81
2022/01/21 07:25:23;;;;;;;7.50;3.60;;;;;;;-3.72;82.45;98508.54;106986;1277;138301;-81
2022/01/21 07:27:49;;;;;;;13.00;5.10;;;;;;;-3.71;82.18;98512.02;106478;1277;22573;-82
2022/01/21 07:30:17;;;;;;;11.40;4.50;;;;;;;-3.69;82.50;98514.12;106895;1277;22603;-82
2022/01/21 07:32:45;;;;;;;9.20;4.80;;;;;;;-3.68;82.58;98516.48;106662;1277;138382;-82
2022/01/21 07:35:12;;;;;;;10.20;4.90;;;;;;;-3.65;82.63;98511.00;107018;1277;24322;-82
2022/01/21 07:37:39;;;;;;;11.10;4.30;;;;;;;-3.60;82.50;98514.32;106842;1277;138449;-81
2022/01/21 07:40:08;;;;;;;9.80;4.40;;;;;;;-3.56;82.89;98514.66;106838;1277;22644;-81
2022/01/21 07:42:34;;;;;;;11.90;4.10;;;;;;;-3.53;82.65;98514.85;106755;1277;23015;-81
2022/01/21 07:45:00;;;;;;;12.30;3.90;;;;;;;-3.52;82.95;98519.56;106325;1277;137768;-81
2022/01/21 07:47:27;;;;;;;15.00;5.40;;;;;;;-3.52;82.71;98520.22;106375;1277;25385;-81
2022/01/21 07:49:53;;;;;;;14.10;5.40;;;;;;;-3.48;83.18;98510.27;106345;1277;138827;-81
2022/01/21 07:52:21;;;;;;;11.50;5.00;;;;;;;-3.44;83.34;98513.17;106170;1278;23404;-82
2022/01/21 07:54:48;;;;;;;9.90;4.60;;;;;;;-3.39;83.00;98514.16;106237;1277;22709;-82
2022/01/21 07:57:14;;;;;;;11.20;4.80;;;;;;;-3.35;83.05;98514.30;106141;1277;137624;-83
2022/01/21 07:59:40;;;;;;;16.20;6.10;;;;;;;-3.32;83.04;98513.42;106227;1277;25336;-82
2022/01/21 08:02:06;;;;;;;10.40;3.90;;;;;;;-3.28;83.13;98513.98;106041;1277;137677;-81
2022/01/21 08:04:33;;;;;;;10.00;5.60;;;;;;;-3.24;83.49;98511.73;106445;1277;25419;-81
2022/01/21 08:06:59;;;;;;;15.80;6.20;;;;;;;-3.17;83.20;98514.39;105989;1277;138574;-81
2022/01/21 08:09:26;;;;;;;14.10;5.50;;;;;;;-3.12;83.42;98511.24;106887;1277;22594;-82
2022/01/21 08:11:54;;;;;;;14.90;5.60;;;;;;;-3.07;82.96;98514.83;106065;1277;22563;-83
2022/01/21 08:14:22;;;;;;;12.60;5.30;;;;;;;-3.06;82.57;98509.04;106349;1277;137755;-81
2022/01/21 08:16:50;;;;;;;8.90;5.10;;;;;;;-3.04;82.63;98513.31;106387;1277;22552;-80
2022/01/21 08:19:16;;;;;;;14.70;6.60;;;;;;;-3.04;82.50;98512.05;106500;1277;138033;-82
2022/01/21 08:21:42;;;;;;;13.40;6.50;;;;;;;-3.00;82.45;98514.09;106293;1277;22603;-82
2022/01/21 08:24:09;;;;;;;9.90;5.60;;;;;;;-2.96;82.73;98511.42;106103;1278;22638;-82
2022/01/21 08:26:37;;;;;;;13.00;7.10;;;;;;;-2.93;82.38;98509.25;106081;1277;137848;-82
2022/01/21 08:29:04;;;;;;;11.20;6.20;;;;;;;-2.90;82.46;98510.77;106061;1277;25005;-83
2022/01/21 08:31:31;;;;;;;15.90;8.10;;;;;;;-2.89;82.34;98515.39;106229;1277;137846;-81
2022/01/21 08:33:58;;;;;;;8.90;6.60;;;;;;;-2.87;82.59;98523.44;106373;1277;22664;-82
2022/01/21 08:36:25;;;;;;;13.40;7.60;;;;;;;-2.82;82.45;98525.63;106255;1277;22564;-81
2022/01/21 08:38:52;;;;;;;9.80;6.50;;;;;;;-2.76;82.01;98526.44;105946;1277;138613;-82
2022/01/21 08:41:20;;;;;;;15.00;7.30;;;;;;;-2.72;82.03;98525.62;106366;1277;22562;-82
2022/01/21 08:43:46;;;;;;;13.90;6.00;;;;;;;-2.70;82.11;98529.17;106244;1277;137693;-83
2022/01/21 08:46:12;;;;;;;13.10;7.20;;;;;;;-2.70;81.87;98538.04;106197;1277;23311;-83
2022/01/21 08:48:38;;;;;;;16.60;7.60;;;;;;;-2.65;81.86;98541.91;106425;1277;22707;-83
2022/01/21 08:51:10;;;;;;;16.70;7.20;;;;;;;-2.54;82.10;98544.18;106140;1277;139028;-83
2022/01/21 08:53:38;;;;;;;14.90;7.20;;;;;;;-2.43;81.55;98541.73;106365;1276;23367;-83
2022/01/21 08:56:08;;;;;;;17.20;7.10;;;;;;;-2.35;81.57;98539.19;106027;1280;138260;-82
2022/01/21 08:58:34;;;;;;;18.30;7.10;;;;;;;-2.27;81.50;98542.31;106434;1277;22573;-84
2022/01/21 09:01:01;;;;;;;16.50;6.60;;;;;;;-2.24;81.46;98542.16;105969;1277;138351;-82
2022/01/21 09:03:27;;;;;;;18.60;6.90;;;;;;;-2.21;81.08;98549.17;106428;1277;25483;-82
2022/01/21 09:05:54;;;;;;;13.50;6.30;;;;;;;-2.19;81.12;98546.76;106224;1277;22665;-82
2022/01/21 09:08:23;;;;;;;11.10;6.60;;;;;;;-2.15;81.23;98549.96;106018;1277;138049;-82
2022/01/21 09:10:51;;;;;;;17.30;7.50;;;;;;;-2.14;81.03;98553.91;106408;1277;25268;-82
2022/01/21 09:13:18;;;;;;;12.10;6.40;;;;;;;-2.12;81.31;98554.80;106447;1275;137905;-82
2022/01/21 09:15:44;;;;;;;15.40;7.00;;;;;;;-2.11;81.16;98553.02;106066;1277;22719;-82
2022/01/21 09:18:17;;;;;;;15.90;7.20;;;;;;;-2.06;81.02;98553.70;106362;1277;22570;-82
2022/01/21 09:20:44;;;;;;;13.30;7.70;;;;;;;-2.01;81.11;98551.55;106173;1277;138766;-82
2022/01/21 09:23:10;;;;;;;14.40;6.50;;;;;;;-1.97;80.87;98552.63;106176;1277;25220;-82
2022/01/21 09:25:37;;;;;;;12.30;5.60;;;;;;;-1.94;80.64;98551.27;106086;1277;138319;-82
2022/01/21 09:28:04;;;;;;;12.40;5.30;;;;;;;-1.93;80.60;98549.34;106492;1277;25371;-81
2022/01/21 09:30:31;;;;;;;15.80;6.60;;;;;;;-1.96;80.36;98552.87;106204;1277;26699;-82
2022/01/21 09:32:57;;;;;;;15.80;7.10;;;;;;;-2.01;80.72;98550.55;106326;1277;138064;-82
2022/01/21 09:35:24;;;;;;;13.90;6.40;;;;;;;-2.04;80.51;98550.34;106049;1277;23087;-82
2022/01/21 09:37:51;;;;;;;13.70;6.60;;;;;;;-2.01;80.91;98550.61;105755;1277;138619;-83
2022/01/21 09:40:18;;;;;;;13.80;6.80;;;;;;;-1.95;80.85;98548.86;106077;1277;22583;-85
2022/01/21 09:42:45;;;;;;;14.90;6.30;;;;;;;-1.89;80.87;98549.87;106421;1277;22574;-83
2022/01/21 09:45:14;;;;;;;12.40;7.20;;;;;;;-1.85;80.58;98549.33;106109;1277;138089;-82
2022/01/21 09:47:47;;;;;;;12.70;6.10;;;;;;;-1.84;80.70;98551.65;106208;1277;222307;-82
2022/01/21 09:50:18;;;;;;;14.60;6.50;;;;;;;-1.82;80.55;98551.27;106122;1277;138154;-81
2022/01/21 09:52:49;;;;;;;13.30;6.50;;;;;;;-1.82;80.52;98545.89;106274;1277;22602;-82
2022/01/21 09:55:17;;;;;;;14.90;7.00;;;;;;;-1.76;80.40;98543.16;106234;1277;138646;-83
2022/01/21 09:57:48;;;;;;;17.20;7.80;;;;;;;-1.68;80.58;98539.94;106217;1277;22729;-83
2022/01/21 10:00:16;;;;;;;15.40;7.10;;;;;;;-1.59;80.53;98541.45;106191;1277;22562;-82
2022/01/21 10:02:43;;;;;;;16.30;6.90;;;;;;;-1.52;80.16;98537.22;106159;1277;137816;-83
2022/01/21 10:05:10;;;;;;;15.30;6.50;;;;;;;-1.48;79.73;98539.77;105948;1277;22544;-82
2022/01/21 10:07:39;;;;;;;18.40;7.50;;;;;;;-1.44;80.08;98540.02;105963;1276;138069;-81
2022/01/21 10:10:08;;;;;;;13.90;5.70;;;;;;;-1.37;79.83;98533.95;105860;1277;24227;-82
2022/01/21 10:12:38;;;;;;;13.20;5.60;;;;;;;-1.30;79.37;98526.52;106083;1277;25267;-82
2022/01/21 10:15:07;;;;;;;17.10;5.90;;;;;;;-1.23;79.06;98520.66;106076;1277;137946;-81
2022/01/21 10:17:34;;;;;;;10.30;4.40;;;;;;;-1.18;78.16;98516.00;106503;1277;22568;-81
2022/01/21 10:20:16;;;;;;;11.70;4.40;;;;;;;-1.18;76.91;98511.29;106172;1277;137903;-82
2022/01/21 10:23:19;;;;;;;13.40;4.50;;;;;;;-1.19;76.80;98512.38;106493;1277;25392;-84
2022/01/21 10:26:05;;;;;;;6.90;4.20;;;;;;;-1.18;76.73;98515.11;105887;1277;137726;-85
2022/01/21 10:28:33;;;;;;;10.70;4.30;;;;;;;-1.20;75.83;98514.45;106413;1277;29613;-80
2022/01/21 10:31:25;;;;;;;8.10;4.40;;;;;;;-1.19;75.51;98510.78;106052;1277;138721;-79
2022/01/21 10:33:56;;;;;;;6.30;3.10;;;;;;;-1.18;74.88;98511.25;106210;1277;22794;-82
2022/01/21 10:36:29;;;;;;;8.10;3.00;;;;;;;-1.21;74.15;98512.41;106257;1276;22572;-81
2022/01/21 10:39:11;;;;;;;10.10;3.00;;;;;;;-1.21;73.39;98507.87;106074;1277;137548;-82
2022/01/21 10:41:43;;;;;;;9.40;3.80;;;;;;;-1.17;74.17;98506.34;106164;1277;22580;-86
2022/01/21 10:44:14;;;;;;;8.90;3.10;;;;;;;-1.12;73.53;98505.02;105891;1277;137793;-82
2022/01/21 10:46:46;;;;;;;8.30;4.30;;;;;;;-1.03;73.00;98497.25;106222;1277;25273;-81
2022/01/21 10:49:14;;;;;;;10.20;3.40;;;;;;;-0.90;73.17;98499.60;106104;1277;138193;-81
2022/01/21 10:51:49;;;;;;;9.60;3.20;;;;;;;-0.84;73.00;98500.86;106250;1277;24096;-82
2022/01/21 10:54:26;;;;;;;6.50;2.80;;;;;;;-0.74;72.71;98491.95;106297;1277;22540;-82
2022/01/21 10:57:12;;;;;;;8.10;3.20;;;;;;;-0.63;72.35;98490.18;106116;1277;137908;-83
2022/01/21 11:00:09;;;;;;;6.30;2.70;;;;;;;-0.63;70.90;98493.17;106035;1277;31694;-83
2022/01/21 11:02:47;;;;;;;6.70;3.00;;;;;;;-0.63;71.75;98493.08;106125;1277;138104;-83
2022/01/21 11:05:32;;;;;;;7.90;3.60;;;;;;;-0.68;70.90;98489.33;106187;1277;23276;-82
2022/01/21 11:08:03;;;;;;;12.80;3.80;;;;;;;-0.68;71.55;98493.42;106084;1277;138161;-82
2022/01/21 11:10:35;;;;;;;11.60;3.90;;;;;;;-0.72;71.91;98491.61;106094;1278;23961;-82
2022/01/21 11:13:22;;;;;;;11.00;4.10;;;;;;;-0.78;72.23;98491.95;106245;1277;138974;-83
2022/01/21 11:16:06;;;;;;;10.30;4.10;;;;;;;-0.78;72.49;98488.45;106209;1277;24432;-82
2022/01/21 11:18:33;;;;;;;6.80;3.50;;;;;;;-0.72;72.86;98482.43;106163;1277;22560;-82
2022/01/21 11:21:07;;;;;;;10.90;4.10;;;;;;;-0.73;72.59;98488.52;106035;1277;137755;-82
2022/01/21 11:23:38;;;;;;;12.50;4.70;;;;;;;-0.84;73.20;98494.48;106441;1277;23970;-82
2022/01/21 11:26:09;;;;;;;14.20;5.60;;;;;;;-0.87;74.18;98496.65;106002;1277;137830;-83
2022/01/21 11:28:49;;;;;;;10.70;4.70;;;;;;;-0.91;74.55;98491.48;105921;1277;25110;-82
2022/01/21 11:31:19;;;;;;;10.50;4.90;;;;;;;-0.86;74.94;98492.37;106141;1277;138777;-83
2022/01/21 11:33:47;;;;;;;14.00;5.50;;;;;;;-0.80;75.39;98487.65;106463;1277;22541;-80
2022/01/21 11:36:14;;;;;;;12.60;6.30;;;;;;;-0.75;75.62;98481.89;106191;1277;22547;-86
2022/01/21 11:38:44;;;;;;;10.70;5.00;;;;;;;-0.56;75.95;98483.66;107094;1278;137841;-82
2022/01/21 11:41:14;;;;;;;12.70;4.90;;;;;;;-0.38;75.46;98484.69;106746;1277;23464;-81
2022/01/21 11:43:49;;;;;;;;;;;;;;;-0.25;75.16;98480.58;106728;1277;138266;-79
2022/01/21 11:48:58;;;;;;;14.50;5.10;;;;;;;-0.34;75.21;98479.75;106805;1277;138231;-83
2022/01/21 11:51:30;;;;;;;12.20;5.40;;;;;;;-0.38;75.77;98475.02;106572;1277;24288;-83
2022/01/21 11:54:03;;;;;;;10.30;4.80;;;;;;;-0.43;75.67;98472.77;106397;1277;22583;-84
2022/01/21 11:56:45;;;;;;;10.60;4.30;;;;;;;-0.50;75.75;98474.15;106148;1277;137869;-84
2022/01/21 11:59:37;;;;;;;10.70;4.40;;;;;;;-0.52;75.82;98470.59;106332;1277;22593;-82
2022/01/21 12:02:13;;;;;;;12.30;4.50;;;;;;;-0.50;75.68;98466.55;106143;1277;137687;-83
2022/01/21 12:05:06;;;;;;;14.90;5.10;;;;;;;-0.63;75.26;98477.75;106314;1277;24228;-82
2022/01/21 12:07:36;;;;;;;10.90;4.20;;;;;;;-0.81;75.92;98487.89;106240;1277;138798;-81
2022/01/21 12:10:08;;;;;;;13.10;4.60;;;;;;;-1.00;76.61;98481.83;106068;1277;24185;-83
2022/01/21 12:16:25;;;;;;;11.00;4.10;;;;;;;-1.32;78.66;98480.13;106070;1277;137370;-80
2022/01/21 12:21:43;;;;;;;14.00;5.70;;;;;;;-0.99;79.12;98479.33;106284;1277;30762;-80
2022/01/21 12:24:10;;;;;;;9.50;4.40;;;;;;;-0.99;78.41;98473.47;106167;1277;22547;-81
2022/01/21 12:26:54;;;;;;;12.40;5.50;;;;;;;-0.99;78.24;98477.23;105879;1277;137570;-81
2022/01/21 12:29:24;;;;;;;10.50;5.00;;;;;;;-0.92;78.01;98471.70;106140;1277;22553;-81
2022/01/21 12:32:43;;;;;;;11.00;5.10;;;;;;;-0.96;77.55;98472.31;105920;1277;140381;-82
2022/01/21 12:35:16;;;;;;;12.80;5.10;;;;;;;-1.13;77.32;98473.80;105845;1277;22557;-84
2022/01/21 12:41:16;;;;;;;12.60;5.40;;;;;;;-1.17;78.00;98471.00;106144;1277;25362;-82